| time (UTC) | temp F | wind direction | speed MPH | gust MPH | rain 1hr in | rain 24hr in | rain mn in | humidity % | barometer mb |
| 20260901133628 | 69 | 168 | 0.0 | 0.0 | 0.01 | 0.12 | 0.09 | 92 | 1014.4 |
| 20260901133148 | 69 | 165 | 0.0 | 1.0 | 0.01 | 0.12 | 0.09 | 92 | 1014.4 |
| 20260901132505 | 69 | 121 | 0.0 | 0.0 | 0.00 | 0.11 | 0.08 | 92 | 1014.5 |
| 20260901132026 | 68 | 147 | 0.0 | 0.0 | 0.00 | 0.11 | 0.08 | 91 | 1014.5 |
| 20260901131541 | 68 | 159 | 0.0 | 0.0 | 0.00 | 0.11 | 0.08 | 91 | 1014.5 |
| 20260901131101 | 67 | 149 | 0.0 | 0.0 | 0.00 | 0.11 | 0.08 | 90 | 1014.7 |
| 20260901130619 | 67 | 131 | 0.0 | 0.0 | 0.00 | 0.11 | 0.08 | 90 | 1014.8 |
| 20260901130007 | 67 | 152 | 0.0 | 0.0 | 0.00 | 0.11 | 0.08 | 89 | 1014.7 |
| 20260901125526 | 67 | 171 | 0.0 | 0.0 | 0.00 | 0.11 | 0.08 | 89 | 1014.7 |
| 20260901125044 | 67 | 122 | 0.0 | 0.0 | 0.00 | 0.11 | 0.08 | 89 | 1014.6 |
| 20260901124601 | 67 | 250 | 0.0 | 0.0 | 0.00 | 0.11 | 0.08 | 89 | 1014.8 |
| 20260901124113 | 66 | 182 | 0.0 | 0.0 | 0.00 | 0.11 | 0.08 | 89 | 1014.8 |
| 20260901123633 | 66 | 118 | 0.0 | 0.0 | 0.00 | 0.11 | 0.08 | 89 | 1014.8 |
| 20260901123041 | 66 | 137 | 0.0 | 0.0 | 0.00 | 0.11 | 0.08 | 89 | 1014.8 |
| 20260901122605 | 66 | 131 | 0.0 | 0.0 | 0.00 | 0.11 | 0.08 | 89 | 1014.9 |
| 20260901122120 | 66 | 165 | 0.0 | 0.0 | 0.00 | 0.11 | 0.08 | 89 | 1015.0 |
| 20260901121642 | 66 | 155 | 0.0 | 0.0 | 0.00 | 0.11 | 0.08 | 89 | 1015.2 |
| 20260901121002 | 66 | 145 | 0.0 | 0.0 | 0.00 | 0.11 | 0.08 | 89 | 1015.1 |
| 20260901120521 | 66 | 116 | 0.0 | 1.0 | 0.00 | 0.11 | 0.08 | 89 | 1015.1 |
| 20260901120049 | 66 | 148 | 0.0 | 1.0 | 0.00 | 0.11 | 0.08 | 89 | 1015.1 |
| 20260901115609 | 66 | 125 | 0.0 | 0.0 | 0.00 | 0.11 | 0.08 | 89 | 1015.0 |
| 20260901115121 | 65 | 103 | 0.0 | 0.0 | 0.00 | 0.11 | 0.08 | 89 | 1015.2 |
| 20260901114537 | 65 | 99 | 0.0 | 0.0 | 0.00 | 0.11 | 0.08 | 89 | 1015.3 |
| 20260901114055 | 65 | 162 | 0.0 | 0.0 | 0.00 | 0.11 | 0.08 | 89 | 1015.3 |
| 20260901113615 | 65 | 126 | 0.0 | 0.0 | 0.00 | 0.11 | 0.08 | 89 | 1015.3 |
| 20260901113142 | 65 | 245 | 0.0 | 0.0 | 0.00 | 0.11 | 0.08 | 89 | 1015.4 |
| 20260901112512 | 65 | 159 | 0.0 | 0.0 | 0.00 | 0.11 | 0.08 | 89 | 1015.3 |
| 20260901112029 | 65 | 221 | 0.0 | 0.0 | 0.00 | 0.11 | 0.08 | 89 | 1015.2 |
| 20260901111545 | 65 | 147 | 0.0 | 0.0 | 0.00 | 0.11 | 0.08 | 89 | 1015.1 |
| 20260901111101 | 65 | 147 | 0.0 | 0.0 | 0.00 | 0.11 | 0.08 | 89 | 1015.1 |
| 20260901110616 | 65 | 125 | 0.0 | 0.0 | 0.00 | 0.11 | 0.08 | 89 | 1015.1 |
| 20260901110035 | 65 | 139 | 0.0 | 0.0 | 0.00 | 0.11 | 0.08 | 89 | 1015.1 |
| 20260901105557 | 65 | 117 | 0.0 | 0.0 | 0.00 | 0.11 | 0.08 | 89 | 1015.0 |
| 20260901105114 | 65 | 145 | 0.0 | 0.0 | 0.01 | 0.11 | 0.08 | 89 | 1015.1 |
| 20260901104532 | 65 | 130 | 0.0 | 0.0 | 0.04 | 0.11 | 0.08 | 89 | 1014.9 |
| 20260901104052 | 65 | 178 | 0.0 | 0.0 | 0.04 | 0.11 | 0.08 | 89 | 1015.0 |
| 20260901103614 | 65 | 144 | 0.0 | 0.0 | 0.04 | 0.11 | 0.08 | 89 | 1014.8 |
| 20260901103139 | 65 | 145 | 0.0 | 0.0 | 0.04 | 0.11 | 0.08 | 89 | 1014.9 |
| 20260901102634 | 65 | 103 | 0.0 | 0.0 | 0.04 | 0.11 | 0.08 | 89 | 1014.9 |
| 20260901102021 | 65 | 130 | 0.0 | 0.0 | 0.04 | 0.11 | 0.08 | 89 | 1015.2 |
| 20260901101554 | 65 | 131 | 0.0 | 0.0 | 0.04 | 0.11 | 0.08 | 89 | 1015.0 |
| 20260901101051 | 66 | 143 | 0.0 | 0.0 | 0.04 | 0.11 | 0.08 | 89 | 1015.0 |
| 20260901100609 | 66 | 151 | 0.0 | 0.0 | 0.04 | 0.11 | 0.08 | 89 | 1015.4 |
| 20260901100135 | 66 | 124 | 0.0 | 0.0 | 0.04 | 0.11 | 0.08 | 89 | 1015.4 |
| 20260901095512 | 66 | 137 | 0.0 | 0.0 | 0.04 | 0.11 | 0.08 | 89 | 1015.4 |
| 20260901095034 | 66 | 195 | 0.0 | 0.0 | 0.02 | 0.09 | 0.06 | 89 | 1015.8 |
| 20260901094552 | 66 | 200 | 0.0 | 0.0 | 0.00 | 0.07 | 0.04 | 89 | 1015.7 |
| 20260901094058 | 66 | 138 | 0.0 | 0.0 | 0.00 | 0.07 | 0.04 | 89 | 1015.5 |
| 20260901093617 | 66 | 138 | 0.0 | 0.0 | 0.00 | 0.07 | 0.04 | 89 | 1015.2 |
| 20260901093027 | 66 | 151 | 0.0 | 0.0 | 0.00 | 0.07 | 0.04 | 89 | 1015.2 |
| 20260901092547 | 66 | 158 | 0.0 | 0.0 | 0.00 | 0.07 | 0.04 | 89 | 1015.2 |
| 20260901092109 | 66 | 159 | 0.0 | 0.0 | 0.00 | 0.07 | 0.04 | 89 | 1015.1 |
| 20260901091631 | 66 | 134 | 0.0 | 0.0 | 0.00 | 0.07 | 0.04 | 89 | 1015.1 |
| 20260901091002 | 66 | 153 | 0.0 | 0.0 | 0.00 | 0.07 | 0.04 | 89 | 1015.0 |
| 20260901090520 | 66 | 144 | 0.0 | 0.0 | 0.00 | 0.07 | 0.04 | 89 | 1015.0 |
| 20260901090046 | 65 | 111 | 0.0 | 0.0 | 0.00 | 0.07 | 0.04 | 89 | 1015.0 |
| 20260901085608 | 65 | 133 | 0.0 | 0.0 | 0.00 | 0.07 | 0.04 | 89 | 1015.0 |
| 20260901085126 | 65 | 147 | 0.0 | 0.0 | 0.01 | 0.07 | 0.04 | 89 | 1015.0 |
| 20260901084542 | 65 | 112 | 0.0 | 0.0 | 0.01 | 0.07 | 0.04 | 89 | 1015.0 |
| 20260901084053 | 65 | 158 | 0.0 | 0.0 | 0.01 | 0.07 | 0.04 | 89 | 1015.2 |
| 20260901083615 | 65 | 150 | 0.0 | 0.0 | 0.01 | 0.07 | 0.04 | 89 | 1015.2 |
| 20260901083005 | 65 | 144 | 0.0 | 0.0 | 0.01 | 0.07 | 0.04 | 89 | 1015.2 |
| 20260901082522 | 65 | 149 | 0.0 | 0.0 | 0.01 | 0.07 | 0.04 | 89 | 1015.2 |
| 20260901082043 | 65 | 159 | 0.0 | 0.0 | 0.02 | 0.07 | 0.04 | 89 | 1015.4 |
| 20260901081558 | 65 | 159 | 0.0 | 0.0 | 0.02 | 0.07 | 0.04 | 89 | 1015.4 |
| 20260901081109 | 65 | 122 | 0.0 | 0.0 | 0.03 | 0.07 | 0.04 | 89 | 1015.2 |
| 20260901080622 | 65 | 152 | 0.0 | 0.0 | 0.03 | 0.07 | 0.04 | 89 | 1015.3 |
| 20260901080027 | 65 | 143 | 0.0 | 0.0 | 0.03 | 0.07 | 0.04 | 89 | 1015.4 |
| 20260901075529 | 65 | 200 | 0.0 | 0.0 | 0.03 | 0.07 | 0.04 | 89 | 1015.4 |
| 20260901075115 | 65 | 147 | 0.0 | 0.0 | 0.02 | 0.06 | 0.03 | 89 | 1015.4 |
| 20260901074518 | 65 | 141 | 0.0 | 0.0 | 0.02 | 0.06 | 0.03 | 89 | 1015.6 |
| 20260901074032 | 65 | 141 | 0.0 | 0.0 | 0.02 | 0.06 | 0.03 | 89 | 1015.7 |
| 20260901073551 | 65 | 162 | 0.0 | 0.0 | 0.02 | 0.06 | 0.03 | 89 | 1015.7 |
| 20260901073113 | 65 | 155 | 0.0 | 0.0 | 0.02 | 0.06 | 0.03 | 89 | 1015.7 |
| 20260901072631 | 65 | 151 | 0.0 | 0.0 | 0.02 | 0.06 | 0.03 | 89 | 1015.8 |
| 20260901072015 | 65 | 168 | 0.0 | 0.0 | 0.01 | 0.05 | 0.02 | 89 | 1015.7 |
| 20260901071543 | 65 | 144 | 0.0 | 0.0 | 0.01 | 0.05 | 0.02 | 89 | 1015.8 |
| 20260901071104 | 65 | 126 | 0.0 | 0.0 | 0.00 | 0.04 | 0.01 | 89 | 1015.7 |
| 20260901070619 | 65 | 126 | 0.0 | 0.0 | 0.00 | 0.04 | 0.01 | 89 | 1015.7 |
| 20260901070053 | 65 | 151 | 0.0 | 0.0 | 0.00 | 0.04 | 0.01 | 89 | 1015.8 |
| 20260901065605 | 65 | 129 | 0.0 | 0.0 | 0.00 | 0.04 | 0.01 | 89 | 1015.9 |
| 20260901065119 | 65 | 129 | 0.0 | 0.0 | 0.00 | 0.04 | 0.01 | 89 | 1016.0 |
| 20260901064507 | 65 | 129 | 0.0 | 0.0 | 0.00 | 0.04 | 0.01 | 89 | 1016.0 |
| 20260901064019 | 65 | 129 | 0.0 | 0.0 | 0.01 | 0.04 | 0.01 | 89 | 1016.1 |
| 20260901063538 | 65 | 129 | 0.0 | 0.0 | 0.01 | 0.04 | 0.01 | 89 | 1016.1 |
| 20260901063100 | 65 | 129 | 0.0 | 0.0 | 0.01 | 0.04 | 0.01 | 89 | 1016.1 |
| 20260901062612 | 65 | 129 | 0.0 | 0.0 | 0.01 | 0.04 | 0.01 | 89 | 1016.2 |
| 20260901062132 | 65 | 129 | 0.0 | 0.0 | 0.01 | 0.04 | 0.01 | 89 | 1016.1 |
| 20260901061652 | 65 | 129 | 0.0 | 0.0 | 0.01 | 0.04 | 0.01 | 89 | 1016.2 |
| 20260901061039 | 65 | 129 | 0.0 | 0.0 | 0.01 | 0.04 | 0.01 | 89 | 1016.4 |
| 20260901060553 | 65 | 143 | 0.0 | 0.0 | 0.01 | 0.04 | 0.01 | 89 | 1016.3 |
| 20260901060116 | 65 | 224 | 0.0 | 0.0 | 0.01 | 0.04 | 0.01 | 89 | 1016.3 |
| 20260901055506 | 65 | 136 | 0.0 | 0.0 | 0.01 | 0.04 | 0.01 | 89 | 1016.3 |
| 20260901055027 | 65 | 136 | 0.0 | 0.0 | 0.01 | 0.04 | 0.01 | 89 | 1016.5 |
| 20260901054549 | 65 | 145 | 0.0 | 0.0 | 0.01 | 0.04 | 0.01 | 89 | 1016.6 |
| 20260901054058 | 65 | 143 | 0.0 | 0.0 | 0.00 | 0.03 | 0.00 | 89 | 1016.6 |
| 20260901053617 | 65 | 147 | 0.0 | 0.0 | 0.00 | 0.03 | 0.00 | 89 | 1016.6 |
| 20260901053140 | 65 | 113 | 0.0 | 0.0 | 0.00 | 0.03 | 0.00 | 89 | 1016.6 |
| 20260901052632 | 65 | 95 | 0.0 | 0.0 | 0.00 | 0.03 | 0.00 | 89 | 1016.7 |
| 20260901052023 | 65 | 147 | 0.0 | 0.0 | 0.00 | 0.03 | 0.00 | 89 | 1016.6 |
| 20260901051533 | 64 | 145 | 0.0 | 0.0 | 0.00 | 0.03 | 0.00 | 89 | 1016.7 |
| 20260901051053 | 64 | 135 | 0.0 | 0.0 | 0.00 | 0.03 | 0.00 | 89 | 1016.6 |
| 20260901050615 | 65 | 139 | 0.0 | 0.0 | 0.00 | 0.03 | 0.00 | 89 | 1016.6 |
| 20260901050141 | 65 | 139 | 0.0 | 0.0 | 0.00 | 0.03 | 0.00 | 90 | 1016.6 |
| 20260901045507 | 65 | 136 | 0.0 | 0.0 | 0.00 | 0.03 | 0.00 | 91 | 1016.8 |
| 20260901045022 | 66 | 136 | 0.0 | 0.0 | 0.00 | 0.03 | 0.00 | 91 | 1016.9 |
| 20260901044545 | 66 | 136 | 0.0 | 0.0 | 0.00 | 0.03 | 0.00 | 91 | 1016.9 |
| 20260901044051 | 66 | 134 | 0.0 | 0.0 | 0.00 | 0.03 | 0.00 | 91 | 1017.1 |
| 20260901043610 | 66 | 139 | 0.0 | 0.0 | 0.00 | 0.03 | 0.00 | 91 | 1017.1 |
| 20260901043045 | 66 | 136 | 0.0 | 0.0 | 0.00 | 0.03 | 0.00 | 91 | 1017.1 |
| 20260901042604 | 66 | 129 | 0.0 | 0.0 | 0.01 | 0.03 | 0.00 | 91 | 1017.1 |
| 20260901042120 | 66 | 133 | 0.0 | 0.0 | 0.01 | 0.03 | 0.00 | 91 | 1017.0 |
| 20260901041648 | 66 | 147 | 0.0 | 0.0 | 0.01 | 0.03 | 0.00 | 91 | 1017.1 |
| 20260901041017 | 66 | 154 | 0.0 | 0.0 | 0.01 | 0.03 | 0.00 | 91 | 1017.2 |
| 20260901040533 | 66 | 155 | 0.0 | 0.0 | 0.01 | 0.03 | 0.00 | 91 | 1017.1 |
| 20260901040100 | 66 | 203 | 0.0 | 0.0 | 0.01 | 0.03 | 0.00 | 91 | 1017.1 |
| 20260901035634 | 66 | 167 | 0.0 | 0.0 | 0.01 | 0.03 | 0.03 | 91 | 1017.1 |
| 20260901035019 | 66 | 223 | 0.0 | 0.0 | 0.01 | 0.03 | 0.03 | 91 | 1017.0 |
| 20260901034541 | 66 | 155 | 0.0 | 0.0 | 0.01 | 0.03 | 0.03 | 91 | 1016.9 |
| 20260901034057 | 66 | 159 | 0.0 | 0.0 | 0.01 | 0.03 | 0.03 | 91 | 1017.0 |
| 20260901033615 | 66 | 135 | 0.0 | 0.0 | 0.01 | 0.03 | 0.03 | 91 | 1017.1 |
| 20260901033040 | 66 | 107 | 0.0 | 0.0 | 0.01 | 0.03 | 0.03 | 91 | 1017.2 |
| 20260901032600 | 66 | 120 | 0.0 | 0.0 | 0.00 | 0.02 | 0.02 | 91 | 1017.2 |
| 20260901032122 | 66 | 127 | 0.0 | 0.0 | 0.00 | 0.02 | 0.02 | 91 | 1017.1 |
| 20260901031510 | 65 | 157 | 0.0 | 0.0 | 0.00 | 0.02 | 0.02 | 91 | 1017.1 |
| 20260901031031 | 65 | 152 | 0.0 | 0.0 | 0.00 | 0.02 | 0.02 | 91 | 1017.2 |
| 20260901030547 | 65 | 141 | 0.0 | 0.0 | 0.00 | 0.02 | 0.02 | 91 | 1017.2 |
| 20260901030109 | 65 | 164 | 0.0 | 0.0 | 0.00 | 0.02 | 0.02 | 91 | 1017.2 |
| 20260901025630 | 65 | 133 | 0.0 | 0.0 | 0.00 | 0.02 | 0.02 | 91 | 1017.0 |
| 20260901025022 | 65 | 138 | 0.0 | 0.0 | 0.00 | 0.02 | 0.02 | 91 | 1017.2 |
| 20260901024547 | 65 | 109 | 0.0 | 0.0 | 0.00 | 0.02 | 0.02 | 91 | 1017.2 |
| 20260901024057 | 65 | 109 | 0.0 | 0.0 | 0.00 | 0.02 | 0.02 | 91 | 1017.2 |
| 20260901023617 | 65 | 147 | 0.0 | 0.0 | 0.00 | 0.02 | 0.02 | 91 | 1017.3 |
| 20260901023005 | 65 | 137 | 0.0 | 0.0 | 0.00 | 0.02 | 0.02 | 91 | 1017.3 |
| 20260901022526 | 65 | 138 | 0.0 | 0.0 | 0.00 | 0.02 | 0.02 | 91 | 1017.3 |
| 20260901022040 | 65 | 131 | 0.0 | 0.0 | 0.00 | 0.02 | 0.02 | 91 | 1017.2 |
| 20260901021606 | 65 | 134 | 0.0 | 0.0 | 0.00 | 0.02 | 0.02 | 91 | 1017.3 |
| 20260901021110 | 65 | 145 | 0.0 | 0.0 | 0.00 | 0.02 | 0.02 | 91 | 1017.5 |
| 20260901020626 | 65 | 145 | 0.0 | 0.0 | 0.00 | 0.02 | 0.02 | 91 | 1017.5 |
| 20260901020143 | 65 | 126 | 0.0 | 0.0 | 0.00 | 0.02 | 0.02 | 91 | 1017.7 |
| 20260901015508 | 65 | 125 | 0.0 | 0.0 | 0.00 | 0.02 | 0.02 | 91 | 1017.7 |
| 20260901015019 | 65 | 124 | 0.0 | 0.0 | 0.00 | 0.02 | 0.02 | 91 | 1017.7 |
| 20260901014540 | 65 | 124 | 0.0 | 0.0 | 0.00 | 0.02 | 0.02 | 91 | 1017.8 |
| 20260901014057 | 65 | 138 | 0.0 | 0.0 | 0.00 | 0.02 | 0.02 | 92 | 1017.7 |
| 20260901013615 | 65 | 105 | 0.0 | 0.0 | 0.00 | 0.02 | 0.02 | 92 | 1017.8 |
| 20260901013139 | 65 | 111 | 0.0 | 0.0 | 0.00 | 0.02 | 0.02 | 92 | 1017.7 |
| 20260901012518 | 65 | 164 | 0.0 | 0.0 | 0.00 | 0.02 | 0.02 | 92 | 1017.6 |
| 20260901012031 | 65 | 138 | 0.0 | 0.0 | 0.00 | 0.02 | 0.02 | 92 | 1017.8 |
| 20260901011556 | 65 | 152 | 0.0 | 0.0 | 0.00 | 0.02 | 0.02 | 92 | 1017.7 |
| 20260901011114 | 65 | 154 | 0.0 | 0.0 | 0.00 | 0.02 | 0.02 | 92 | 1017.7 |
| 20260901010502 | 65 | 145 | 0.0 | 0.0 | 0.00 | 0.02 | 0.02 | 92 | 1017.7 |
| 20260901010051 | 65 | 148 | 0.0 | 0.0 | 0.00 | 0.02 | 0.02 | 92 | 1017.6 |
| 20260901005614 | 65 | 94 | 0.0 | 0.0 | 0.00 | 0.02 | 0.02 | 92 | 1017.6 |
| 20260901005130 | 65 | 85 | 0.0 | 0.0 | 0.00 | 0.02 | 0.02 | 92 | 1017.5 |
| 20260901004541 | 65 | 126 | 0.0 | 0.0 | 0.00 | 0.02 | 0.02 | 92 | 1017.6 |
| 20260901004102 | 65 | 139 | 0.0 | 0.0 | 0.00 | 0.02 | 0.02 | 92 | 1017.6 |
| 20260901003617 | 65 | 176 | 0.0 | 0.0 | 0.00 | 0.02 | 0.02 | 92 | 1017.5 |
| 20260901003142 | 65 | 122 | 0.0 | 0.0 | 0.00 | 0.02 | 0.02 | 92 | 1017.3 |
| 20260901002513 | 65 | 151 | 0.0 | 0.0 | 0.00 | 0.02 | 0.02 | 92 | 1017.3 |
| 20260901002030 | 65 | 117 | 0.0 | 0.0 | 0.00 | 0.02 | 0.02 | 92 | 1017.3 |
| 20260901001604 | 65 | 172 | 0.0 | 0.0 | 0.00 | 0.02 | 0.02 | 92 | 1017.3 |
| 20260901001113 | 65 | 155 | 0.0 | 0.0 | 0.00 | 0.02 | 0.02 | 92 | 1017.3 |
| 20260901000636 | 65 | 140 | 0.0 | 0.0 | 0.00 | 0.02 | 0.02 | 92 | 1017.3 |
| 20260901000155 | 65 | 137 | 0.0 | 0.0 | 0.00 | 0.02 | 0.02 | 92 | 1017.3 |
| 20260831235513 | 65 | 148 | 0.0 | 0.0 | 0.00 | 0.02 | 0.02 | 92 | 1017.3 |
| 20260831235030 | 65 | 126 | 0.0 | 0.0 | 0.00 | 0.02 | 0.02 | 92 | 1017.3 |
| 20260831234557 | 66 | 159 | 0.0 | 0.0 | 0.00 | 0.02 | 0.02 | 92 | 1017.4 |
| 20260831234116 | 66 | 90 | 0.0 | 0.0 | 0.00 | 0.02 | 0.02 | 92 | 1017.5 |
| 20260831233634 | 66 | 144 | 0.0 | 0.0 | 0.00 | 0.02 | 0.02 | 92 | 1017.5 |
| 20260831233006 | 66 | 261 | 0.0 | 0.0 | 0.00 | 0.02 | 0.02 | 92 | 1017.5 |
| 20260831232523 | 66 | 147 | 0.0 | 0.0 | 0.00 | 0.02 | 0.02 | 92 | 1017.4 |
| 20260831232043 | 66 | 145 | 0.0 | 0.0 | 0.00 | 0.02 | 0.02 | 92 | 1017.3 |
| 20260831231632 | 66 | 244 | 0.0 | 0.0 | 0.00 | 0.02 | 0.02 | 92 | 1017.4 |
| 20260831231003 | 66 | 117 | 0.0 | 0.0 | 0.00 | 0.02 | 0.02 | 92 | 1017.5 |
| 20260831230522 | 66 | 145 | 0.0 | 0.0 | 0.00 | 0.02 | 0.02 | 92 | 1017.5 |
| 20260831230039 | 66 | 154 | 0.0 | 0.0 | 0.00 | 0.02 | 0.02 | 92 | 1017.6 |
| 20260831225551 | 66 | 148 | 0.0 | 0.0 | 0.00 | 0.02 | 0.02 | 92 | 1017.6 |
| 20260831225111 | 66 | 122 | 0.0 | 0.0 | 0.00 | 0.02 | 0.02 | 92 | 1017.6 |
| 20260831224644 | 66 | 136 | 0.0 | 0.0 | 0.00 | 0.02 | 0.02 | 92 | 1017.7 |
| 20260831224015 | 66 | 121 | 0.0 | 0.0 | 0.00 | 0.02 | 0.02 | 92 | 1017.7 |
| 20260831223534 | 66 | 126 | 0.0 | 0.0 | 0.00 | 0.02 | 0.02 | 92 | 1017.6 |
| 20260831223041 | 66 | 136 | 0.0 | 0.0 | 0.00 | 0.02 | 0.02 | 92 | 1017.6 |
| 20260831222557 | 66 | 156 | 0.0 | 7.0 | 0.00 | 0.02 | 0.02 | 92 | 1017.7 |
| 20260831222116 | 66 | 222 | 0.0 | 7.0 | 0.00 | 0.02 | 0.02 | 92 | 1017.7 |
| 20260831221644 | 66 | 167 | 0.0 | 0.0 | 0.00 | 0.02 | 0.02 | 92 | 1017.7 |
| 20260831221015 | 66 | 145 | 0.0 | 0.0 | 0.00 | 0.02 | 0.02 | 92 | 1017.6 |
| 20260831220533 | 66 | 129 | 0.0 | 0.0 | 0.00 | 0.02 | 0.02 | 92 | 1017.7 |
| 20260831220054 | 66 | 130 | 0.0 | 0.0 | 0.00 | 0.02 | 0.02 | 92 | 1017.8 |
| 20260831215607 | 66 | 141 | 0.0 | 0.0 | 0.00 | 0.02 | 0.02 | 92 | 1017.9 |
| 20260831215122 | 66 | 122 | 0.0 | 0.0 | 0.00 | 0.02 | 0.02 | 92 | 1018.0 |
| 20260831214548 | 66 | 98 | 0.0 | 0.0 | 0.00 | 0.02 | 0.02 | 92 | 1018.2 |
| 20260831214104 | 66 | 137 | 0.0 | 0.0 | 0.00 | 0.02 | 0.02 | 92 | 1018.2 |
| 20260831213626 | 66 | 96 | 0.0 | 0.0 | 0.00 | 0.02 | 0.02 | 92 | 1018.3 |
| 20260831213017 | 66 | 116 | 0.0 | 0.0 | 0.00 | 0.02 | 0.02 | 92 | 1018.3 |
| 20260831212531 | 65 | 162 | 0.0 | 0.0 | 0.00 | 0.02 | 0.02 | 92 | 1018.4 |
| 20260831212051 | 65 | 144 | 0.0 | 0.0 | 0.00 | 0.02 | 0.02 | 92 | 1018.3 |
| 20260831211609 | 65 | 178 | 0.0 | 0.0 | 0.00 | 0.02 | 0.02 | 92 | 1018.4 |
| 20260831211116 | 65 | 154 | 0.0 | 0.0 | 0.00 | 0.02 | 0.02 | 92 | 1018.4 |
| 20260831210632 | 65 | 155 | 0.0 | 0.0 | 0.00 | 0.02 | 0.02 | 92 | 1018.5 |
| 20260831210153 | 65 | 137 | 0.0 | 0.0 | 0.00 | 0.02 | 0.02 | 92 | 1018.6 |
| 20260831205513 | 65 | 92 | 0.0 | 2.0 | 0.00 | 0.02 | 0.02 | 91 | 1018.6 |
| 20260831205034 | 66 | 115 | 0.0 | 0.0 | 0.00 | 0.02 | 0.02 | 91 | 1018.7 |
| 20260831204546 | 66 | 137 | 0.0 | 2.0 | 0.00 | 0.02 | 0.02 | 91 | 1018.8 |
| 20260831204059 | 66 | 165 | 0.0 | 2.0 | 0.00 | 0.02 | 0.02 | 91 | 1018.8 |
| 20260831203619 | 66 | 160 | 0.0 | 1.0 | 0.00 | 0.02 | 0.02 | 91 | 1018.7 |
| 20260831203044 | 66 | 166 | 0.0 | 1.0 | 0.00 | 0.02 | 0.02 | 91 | 1018.7 |
| 20260831202553 | 66 | 122 | 0.0 | 1.0 | 0.00 | 0.02 | 0.02 | 90 | 1018.8 |
| 20260831202111 | 66 | 280 | 0.0 | 0.0 | 0.00 | 0.02 | 0.02 | 90 | 1018.7 |
| 20260831201510 | 66 | 123 | 0.0 | 1.0 | 0.00 | 0.02 | 0.02 | 90 | 1018.6 |
| 20260831201029 | 66 | 148 | 0.0 | 4.0 | 0.00 | 0.02 | 0.02 | 90 | 1018.7 |
| 20260831200550 | 66 | 131 | 0.0 | 4.0 | 0.00 | 0.02 | 0.02 | 90 | 1018.6 |
| 20260831200109 | 66 | 202 | 0.0 | 0.0 | 0.00 | 0.02 | 0.02 | 90 | 1018.6 |
| 20260831195629 | 66 | 136 | 0.0 | 1.0 | 0.00 | 0.02 | 0.02 | 90 | 1018.6 |
| 20260831195013 | 66 | 165 | 0.0 | 2.0 | 0.00 | 0.02 | 0.02 | 90 | 1018.6 |
| 20260831194545 | 66 | 290 | 0.0 | 2.0 | 0.00 | 0.02 | 0.02 | 90 | 1018.7 |
| 20260831194052 | 66 | 134 | 0.0 | 3.0 | 0.00 | 0.02 | 0.02 | 90 | 1018.8 |
| 20260831193611 | 66 | 165 | 0.0 | 3.0 | 0.00 | 0.02 | 0.02 | 90 | 1018.9 |
| 20260831193138 | 66 | 129 | 0.0 | 1.0 | 0.00 | 0.02 | 0.02 | 90 | 1019.0 |
| 20260831192503 | 66 | 206 | 0.0 | 2.0 | 0.00 | 0.02 | 0.02 | 90 | 1018.9 |
| 20260831192024 | 66 | 126 | 0.0 | 0.0 | 0.00 | 0.02 | 0.02 | 90 | 1019.0 |
| 20260831191546 | 66 | 220 | 0.0 | 0.0 | 0.00 | 0.02 | 0.02 | 90 | 1019.0 |
| 20260831191055 | 65 | 271 | 0.0 | 0.0 | 0.00 | 0.02 | 0.02 | 91 | 1019.0 |
| 20260831190614 | 65 | 181 | 0.0 | 0.0 | 0.00 | 0.02 | 0.02 | 90 | 1019.2 |
| 20260831190147 | 65 | 79 | 0.0 | 0.0 | 0.00 | 0.02 | 0.02 | 90 | 1019.2 |
| 20260831185506 | 65 | 159 | 0.0 | 0.0 | 0.00 | 0.02 | 0.02 | 90 | 1019.2 |
| 20260831185022 | 65 | 116 | 0.0 | 4.0 | 0.00 | 0.02 | 0.02 | 90 | 1019.2 |
| 20260831184541 | 65 | 190 | 0.0 | 0.0 | 0.00 | 0.02 | 0.02 | 90 | 1019.2 |
| 20260831184104 | 65 | 145 | 0.0 | 0.0 | 0.00 | 0.02 | 0.02 | 90 | 1019.3 |
| 20260831183621 | 65 | 144 | 0.0 | 0.0 | 0.00 | 0.02 | 0.02 | 90 | 1019.4 |
| 20260831183040 | 65 | 155 | 0.0 | 0.0 | 0.00 | 0.02 | 0.02 | 91 | 1019.4 |
| 20260831182604 | 65 | 119 | 0.0 | 3.0 | 0.00 | 0.02 | 0.02 | 91 | 1019.3 |
| 20260831182123 | 65 | 113 | 0.0 | 3.0 | 0.00 | 0.02 | 0.02 | 91 | 1019.3 |
| 20260831181540 | 65 | 151 | 0.0 | 0.0 | 0.00 | 0.02 | 0.02 | 91 | 1019.5 |
| 20260831181057 | 64 | 220 | 0.0 | 3.0 | 0.00 | 0.02 | 0.02 | 91 | 1019.6 |
| 20260831180617 | 64 | 116 | 0.0 | 3.0 | 0.00 | 0.02 | 0.02 | 91 | 1019.7 |
| 20260831180145 | 64 | 158 | 0.0 | 1.0 | 0.00 | 0.02 | 0.02 | 92 | 1019.8 |
| 20260831175503 | 64 | 122 | 0.0 | 0.0 | 0.00 | 0.02 | 0.02 | 92 | 1019.9 |
| 20260831175025 | 64 | 159 | 0.0 | 0.0 | 0.00 | 0.02 | 0.02 | 92 | 1019.9 |
| 20260831174541 | 64 | 158 | 0.0 | 0.0 | 0.00 | 0.02 | 0.02 | 92 | 1020.0 |
| 20260831174057 | 64 | 127 | 0.0 | 0.0 | 0.00 | 0.02 | 0.02 | 91 | 1019.9 |
| 20260831173619 | 65 | 138 | 0.0 | 0.0 | 0.00 | 0.02 | 0.02 | 91 | 1020.0 |
| 20260831173041 | 65 | 135 | 0.0 | 0.0 | 0.00 | 0.02 | 0.02 | 92 | 1020.0 |
| 20260831172555 | 65 | 136 | 0.0 | 0.0 | 0.00 | 0.02 | 0.02 | 91 | 1020.0 |
| 20260831172114 | 65 | 145 | 0.0 | 0.0 | 0.00 | 0.02 | 0.02 | 91 | 1020.0 |
| 20260831171638 | 65 | 127 | 0.0 | 0.0 | 0.00 | 0.02 | 0.02 | 91 | 1020.0 |
| 20260831171011 | 65 | 145 | 0.0 | 0.0 | 0.00 | 0.02 | 0.02 | 91 | 1020.0 |
| 20260831170532 | 65 | 141 | 0.0 | 2.0 | 0.00 | 0.02 | 0.02 | 91 | 1020.1 |
| 20260831170105 | 65 | 148 | 0.0 | 2.0 | 0.00 | 0.02 | 0.02 | 91 | 1020.2 |
| 20260831165617 | 65 | 137 | 0.0 | 0.0 | 0.00 | 0.02 | 0.02 | 91 | 1020.3 |
| 20260831165135 | 65 | 233 | 0.0 | 0.0 | 0.00 | 0.02 | 0.02 | 91 | 1020.4 |
| 20260831164541 | 65 | 144 | 0.0 | 0.0 | 0.00 | 0.02 | 0.02 | 91 | 1020.4 |
| 20260831164100 | 65 | 147 | 0.0 | 0.0 | 0.01 | 0.02 | 0.02 | 91 | 1020.4 |
| 20260831163619 | 65 | 171 | 0.0 | 0.0 | 0.01 | 0.02 | 0.02 | 91 | 1020.4 |
| 20260831163145 | 65 | 148 | 0.0 | 1.0 | 0.01 | 0.02 | 0.02 | 91 | 1020.3 |
| 20260831162515 | 65 | 186 | 0.0 | 1.0 | 0.01 | 0.02 | 0.02 | 91 | 1020.4 |
| 20260831162032 | 65 | 188 | 0.0 | 1.0 | 0.01 | 0.02 | 0.02 | 91 | 1020.6 |
| 20260831161600 | 65 | 180 | 0.0 | 1.0 | 0.01 | 0.02 | 0.02 | 92 | 1020.5 |
| 20260831161119 | 65 | 241 | 0.0 | 1.0 | 0.01 | 0.02 | 0.02 | 92 | 1020.5 |
| 20260831160502 | 65 | 182 | 0.0 | 1.0 | 0.02 | 0.02 | 0.02 | 92 | 1020.4 |
| 20260831160047 | 65 | 126 | 0.0 | 1.0 | 0.02 | 0.02 | 0.02 | 92 | 1020.5 |
| 20260831155605 | 65 | 159 | 0.0 | 1.0 | 0.02 | 0.02 | 0.02 | 92 | 1020.4 |
| 20260831155125 | 65 | 176 | 0.0 | 0.0 | 0.02 | 0.02 | 0.02 | 92 | 1020.5 |
| 20260831154601 | 65 | 136 | 0.0 | 0.0 | 0.02 | 0.02 | 0.02 | 92 | 1020.6 |
| 20260831154055 | 65 | 135 | 0.0 | 0.0 | 0.01 | 0.01 | 0.01 | 92 | 1020.7 |
| 20260831153613 | 65 | 91 | 0.0 | 0.0 | 0.01 | 0.01 | 0.01 | 91 | 1020.6 |
| 20260831153029 | 65 | 116 | 0.0 | 0.0 | 0.01 | 0.01 | 0.01 | 91 | 1020.7 |
| 20260831152551 | 65 | 140 | 0.0 | 0.0 | 0.01 | 0.01 | 0.01 | 91 | 1020.9 |
| 20260831152109 | 65 | 127 | 0.0 | 0.0 | 0.01 | 0.01 | 0.01 | 91 | 1020.9 |
| 20260831151637 | 65 | 148 | 0.0 | 0.0 | 0.01 | 0.01 | 0.01 | 90 | 1020.9 |
| 20260831151008 | 66 | 167 | 0.0 | 0.0 | 0.00 | 0.00 | 0.00 | 90 | 1020.9 |
| 20260831150527 | 66 | 170 | 0.0 | 0.0 | 0.00 | 0.00 | 0.00 | 89 | 1020.9 |
| 20260831150051 | 66 | 158 | 0.0 | 0.0 | 0.00 | 0.00 | 0.00 | 89 | 1020.8 |
| 20260831145610 | 66 | 129 | 0.0 | 4.0 | 0.00 | 0.00 | 0.00 | 89 | 1020.6 |
| 20260831145127 | 66 | 153 | 0.0 | 4.0 | 0.00 | 0.00 | 0.00 | 88 | 1020.4 |
| 20260831144501 | 66 | 175 | 0.0 | 1.0 | 0.00 | 0.00 | 0.00 | 89 | 1020.3 |
| 20260831144019 | 66 | 136 | 0.0 | 1.0 | 0.00 | 0.00 | 0.00 | 89 | 1020.3 |
| 20260831143534 | 66 | 125 | 0.0 | 0.0 | 0.00 | 0.00 | 0.00 | 90 | 1020.3 |
| 20260831143105 | 66 | 81 | 0.0 | 0.0 | 0.00 | 0.00 | 0.00 | 90 | 1020.3 |
| 20260831142509 | 66 | 111 | 0.0 | 0.0 | 0.00 | 0.00 | 0.00 | 90 | 1020.5 |
| 20260831142026 | 65 | 126 | 0.0 | 0.0 | 0.00 | 0.00 | 0.00 | 89 | 1020.6 |
| 20260831141548 | 66 | 122 | 0.0 | 0.0 | 0.00 | 0.00 | 0.00 | 89 | 1020.6 |
| 20260831141103 | 66 | 165 | 0.0 | 0.0 | 0.00 | 0.00 | 0.00 | 89 | 1020.7 |
| 20260831140622 | 66 | 143 | 0.0 | 0.0 | 0.00 | 0.00 | 0.00 | 89 | 1020.5 |
| 20260831140017 | 66 | 105 | 0.0 | 0.0 | 0.00 | 0.00 | 0.00 | 90 | 1020.4 |
| 20260831135531 | 65 | 171 | 0.0 | 0.0 | 0.00 | 0.00 | 0.00 | 90 | 1020.6 |
| 20260831135047 | 65 | 141 | 0.0 | 0.0 | 0.00 | 0.00 | 0.00 | 90 | 1020.6 |
| 20260831134600 | 65 | 119 | 0.0 | 0.0 | 0.00 | 0.00 | 0.00 | 91 | 1020.6 |
| 20260831134111 | 64 | 176 | 0.0 | 0.0 | 0.00 | 0.00 | 0.00 | 91 | 1020.6 |